Time;durP1;ratioP1;P1;durP2;ratioP2;P2;SDS_P1;SDS_P2;PMS_P1;PMS_P2;Temp;Humidity;BMP_temperature;BMP_pressure;BME280_temperature;BME280_humidity;BME280_pressure;Samples;Min_cycle;Max_cycle;Signal;HPM_P1;HPM_P2
2023/02/21 06:54:09;;;;;;;35.50;20.35;;;;;;;;;;10521921;28;20904;-82
2023/02/21 06:59:10;;;;;;;35.65;21.75;;;;;;;;;;10506813;28;20035;-82
2023/02/21 07:04:11;;;;;;;58.10;32.30;;;;;;;;;;10504520;28;20021;-82
2023/02/21 07:09:12;;;;;;;37.60;23.13;;;;;;;;;;10505087;28;20028;-83
2023/02/21 07:14:13;;;;;;;31.05;19.42;;;;;;;;;;10503331;28;20029;-82
2023/02/21 07:19:25;;;;;;;28.75;19.88;;;;;;;;;;10501844;28;20056;-82
2023/02/21 07:24:26;;;;;;;41.97;25.77;;;;;;;;;;10499639;28;20025;-83
2023/02/21 07:29:27;;;;;;;33.20;22.65;;;;;;;;;;10497038;28;20025;-83
2023/02/21 07:34:28;;;;;;;42.55;26.30;;;;;;;;;;10496983;28;20394;-82
2023/02/21 07:39:29;;;;;;;;;;;;;;;;;;10495616;28;20116;-82
2023/02/21 07:44:30;;;;;;;37.47;25.10;;;;;;;;;;10497641;28;19915;-83
2023/02/21 07:49:31;;;;;;;36.42;23.25;;;;;;;;;;10494773;28;20056;-83
2023/02/21 07:54:35;;;;;;;;;;;;;;;;;;10496405;28;20040;-82
2023/02/21 07:59:36;;;;;;;19.63;13.23;;;;;;;;;;10498251;28;19908;-83
2023/02/21 08:04:37;;;;;;;23.38;16.27;;;;;;;;;;10482420;28;20021;-82
2023/02/21 08:09:38;;;;;;;;;;;;;;;;;;10468193;28;20033;-82
2023/02/21 08:14:39;;;;;;;26.88;16.50;;;;;;;;;;10467468;28;20389;-82
2023/02/21 08:19:40;;;;;;;;;;;;;;;;;;10467895;28;20056;-82
2023/02/21 08:24:41;;;;;;;32.90;21.08;;;;;;;;;;10469765;28;20367;-81
2023/02/21 08:29:42;;;;;;;;;;;;;;;;;;10470437;28;20025;-82
2023/02/21 08:34:49;;;;;;;39.92;23.98;;;;;;;;;;10467970;28;19915;-81
2023/02/21 08:39:51;;;;;;;38.40;23.50;;;;;;;;;;10476350;28;20029;-80
2023/02/21 08:44:52;;;;;;;34.13;21.25;;;;;;;;;;10475484;28;20029;-80
2023/02/21 08:49:53;;;;;;;;;;;;;;;;;;10463304;28;20399;-80
2023/02/21 08:54:54;;;;;;;29.48;18.63;;;;;;;;;;10461999;28;19904;-81
2023/02/21 08:59:55;;;;;;;;;;;;;;;;;;10462735;28;20148;-81
2023/02/21 09:04:56;;;;;;;34.08;21.73;;;;;;;;;;10462664;28;19905;-81
2023/02/21 09:09:57;;;;;;;;;;;;;;;;;;10462115;28;20170;-80
2023/02/21 09:14:58;;;;;;;28.13;18.88;;;;;;;;;;10459897;28;19904;-81
2023/02/21 09:19:59;;;;;;;;;;;;;;;;;;10469692;28;20127;-80
2023/02/21 09:25:00;;;;;;;;;;;;;;;;;;10461389;28;19905;-81
2023/02/21 09:30:01;;;;;;;;;;;;;;;;;;10460724;28;19905;-80
2023/02/21 09:35:02;;;;;;;;;;;;;;;;;;10480254;28;19999;-80
2023/02/21 09:40:06;;;;;;;;;;;;;;;;;;10461519;28;19913;-80
2023/02/21 09:45:07;;;;;;;;;;;;;;;;;;10462115;28;20384;-81
2023/02/21 09:50:08;;;;;;;;;;;;;;;;;;10462308;28;19919;-80
2023/02/21 09:55:09;;;;;;;;;;;;;;;;;;10460765;28;20297;-80
2023/02/21 10:00:10;;;;;;;;;;;;;;;;;;10462343;28;19919;-81
2023/02/21 10:05:11;;;;;;;;;;;;;;;;;;10460498;28;19904;-80
2023/02/21 10:10:12;;;;;;;;;;;;;;;;;;10460506;28;19950;-79
2023/02/21 10:15:13;;;;;;;;;;;;;;;;;;10461592;28;19909;-80
2023/02/21 10:20:14;;;;;;;;;;;;;;;;;;10461785;28;19909;-80
2023/02/21 10:25:15;;;;;;;;;;;;;;;;;;10462437;28;19905;-79
2023/02/21 10:30:16;;;;;;;;;;;;;;;;;;10469415;28;19904;-79
2023/02/21 10:35:17;;;;;;;;;;;;;;;;;;10477623;28;20037;-83
2023/02/21 10:40:18;;;;;;;;;;;;;;;;;;10468425;28;19912;-81
2023/02/21 10:45:19;;;;;;;;;;;;;;;;;;10475865;28;20302;-81
2023/02/21 10:50:20;;;;;;;;;;;;;;;;;;10484684;28;19967;-79
2023/02/21 10:55:21;;;;;;;;;;;;;;;;;;10480644;28;19912;-81
2023/02/21 11:00:22;;;;;;;;;;;;;;;;;;10462646;28;19905;-79
2023/02/21 11:05:23;;;;;;;;;;;;;;;;;;10459269;28;19916;-80
2023/02/21 11:10:24;;;;;;;;;;;;;;;;;;10460076;28;20427;-78
2023/02/21 11:15:25;;;;;;;;;;;;;;;;;;10461431;28;19905;-80
2023/02/21 11:20:27;;;;;;;;;;;;;;;;;;10460726;28;19911;-79
2023/02/21 11:25:28;;;;;;;;;;;;;;;;;;10461100;28;19905;-79
2023/02/21 11:30:29;;;;;;;;;;;;;;;;;;10460487;28;19909;-80
2023/02/21 11:35:30;;;;;;;;;;;;;;;;;;10458271;28;19911;-79
2023/02/21 11:40:36;;;;;;;;;;;;;;;;;;10468192;28;19905;-80
2023/02/21 11:45:37;;;;;;;;;;;;;;;;;;10467977;28;19944;-81
2023/02/21 11:50:39;;;;;;;;;;;;;;;;;;10470726;28;19913;-81
2023/02/21 11:55:40;;;;;;;;;;;;;;;;;;10465915;28;19955;-80
2023/02/21 12:00:41;;;;;;;;;;;;;;;;;;10466909;28;19911;-81
2023/02/21 12:05:41;;;;;;;;;;;;;;;;;;10465862;28;19912;-80
2023/02/21 12:10:42;;;;;;;;;;;;;;;;;;10466848;28;20282;-81
2023/02/21 12:15:43;;;;;;;;;;;;;;;;;;10467563;28;19915;-81
2023/02/21 12:20:44;;;;;;;;;;;;;;;;;;10466534;28;19926;-81
2023/02/21 12:25:45;;;;;;;;;;;;;;;;;;10488792;28;20371;-81
2023/02/21 12:30:46;;;;;;;;;;;;;;;;;;10465434;28;19909;-82
2023/02/21 12:35:47;;;;;;;;;;;;;;;;;;10466836;28;19973;-80
2023/02/21 12:40:48;;;;;;;;;;;;;;;;;;10467801;28;19995;-81
2023/02/21 12:45:49;;;;;;;;;;;;;;;;;;10468000;28;19905;-81
2023/02/21 12:50:50;;;;;;;;;;;;;;;;;;10465011;28;19973;-81
2023/02/21 12:55:51;;;;;;;;;;;;;;;;;;10462819;28;19905;-81
2023/02/21 13:00:52;;;;;;;;;;;;;;;;;;10471517;28;20382;-81
2023/02/21 13:05:53;;;;;;;;;;;;;;;;;;10476526;28;19909;-81
2023/02/21 13:10:54;;;;;;;;;;;;;;;;;;10463370;28;19959;-81
2023/02/21 13:15:56;;;;;;;;;;;;;;;;;;10463036;28;20353;-81
2023/02/21 13:20:58;;;;;;;;;;;;;;;;;;10466596;28;19905;-82
2023/02/21 13:25:59;;;;;;;;;;;;;;;;;;10460703;28;19911;-83
2023/02/21 13:31:00;;;;;;;;;;;;;;;;;;10459581;28;20265;-81
2023/02/21 13:36:01;;;;;;;;;;;;;;;;;;10461553;28;19905;-81
2023/02/21 13:41:02;;;;;;;;;;;;;;;;;;10459916;28;20259;-80
2023/02/21 13:46:03;;;;;;;;;;;;;;;;;;10457941;28;19966;-80
2023/02/21 13:51:04;;;;;;;;;;;;;;;;;;10458025;28;19922;-80
2023/02/21 13:56:05;;;;;;;;;;;;;;;;;;10457418;28;19991;-80
2023/02/21 14:01:06;;;;;;;;;;;;;;;;;;10457530;28;20275;-82
2023/02/21 14:06:06;;;;;;;;;;;;;;;;;;10460931;28;19926;-80
2023/02/21 14:11:11;;;;;;;;;;;;;;;;;;10464650;28;19909;-79
2023/02/21 14:16:13;;;;;;;;;;;;;;;;;;10477983;28;19909;-80
2023/02/21 14:21:14;;;;;;;;;;;;;;;;;;10475948;28;19905;-79
2023/02/21 14:26:15;;;;;;;;;;;;;;;;;;10465759;28;20367;-81
2023/02/21 14:31:16;;;;;;;;;;;;;;;;;;10458951;28;19909;-81
2023/02/21 14:36:17;;;;;;;;;;;;;;;;;;10457113;28;19905;-81
2023/02/21 14:41:19;;;;;;;;;;;;;;;;;;10456656;28;19911;-81
2023/02/21 14:46:20;;;;;;;;;;;;;;;;;;10436209;28;19944;-80
2023/02/21 14:51:21;;;;;;;;;;;;;;;;;;10417984;28;20367;-80
2023/02/21 14:56:22;;;;;;;;;;;;;;;;;;10419389;28;19928;-82
2023/02/21 15:01:24;;;;;;;;;;;;;;;;;;10419118;28;19931;-82
2023/02/21 15:06:30;;;;;;;;;;;;;;;;;;10420283;28;19956;-82
2023/02/21 15:11:32;;;;;;;;;;;;;;;;;;10421849;28;19920;-82
2023/02/21 15:16:33;;;;;;;;;;;;;;;;;;10428736;28;19905;-82
2023/02/21 15:21:34;;;;;;;;;;;;;;;;;;10429605;28;19909;-82
2023/02/21 15:26:35;;;;;;;;;;;;;;;;;;10433823;28;19909;-82
2023/02/21 15:31:36;;;;;;;;;;;;;;;;;;10434527;28;19909;-82
2023/02/21 15:36:37;;;;;;;;;;;;;;;;;;10430443;28;20274;-82
2023/02/21 15:41:37;;;;;;;;;;;;;;;;;;10424433;28;19911;-82
2023/02/21 15:46:38;;;;;;;;;;;;;;;;;;10424169;28;19915;-82
2023/02/21 15:51:39;;;;;;;;;;;;;;;;;;10426095;28;20317;-82
2023/02/21 15:56:41;;;;;;;;;;;;;;;;;;10427967;28;19909;-82
2023/02/21 16:01:42;;;;;;;;;;;;;;;;;;10430691;28;19905;-82
2023/02/21 16:06:43;;;;;;;;;;;;;;;;;;10436970;28;19909;-80
2023/02/21 16:11:44;;;;;;;;;;;;;;;;;;10439452;28;20011;-82
2023/02/21 16:16:45;;;;;;;;;;;;;;;;;;10426150;28;20414;-82
2023/02/21 16:21:46;;;;;;;;;;;;;;;;;;10427678;28;19959;-81
2023/02/21 16:26:47;;;;;;;;;;;;;;;;;;10424583;28;19905;-83
2023/02/21 16:31:48;;;;;;;;;;;;;;;;;;10423593;28;19982;-80
2023/02/21 16:36:53;;;;;;;;;;;;;;;;;;10433464;28;20368;-81
2023/02/21 16:41:54;;;;;;;;;;;;;;;;;;10425798;28;19912;-80
2023/02/21 16:46:55;;;;;;;;;;;;;;;;;;10423371;28;19911;-80
2023/02/21 16:51:56;;;;;;;;;;;;;;;;;;10421776;28;19935;-81
2023/02/21 16:56:57;;;;;;;;;;;;;;;;;;10422519;28;19909;-81
2023/02/21 17:02:00;;;;;;;;;;;;;;;;;;10421316;28;19905;-81
2023/02/21 17:07:02;;;;;;;;;;;;;;;;;;10421628;28;20425;-81
2023/02/21 17:12:03;;;;;;;;;;;;;;;;;;10423542;28;19916;-81
2023/02/21 17:17:04;;;;;;;;;;;;;;;;;;10425094;28;20386;-81
2023/02/21 17:22:04;;;;;;;;;;;;;;;;;;10423355;28;19905;-81
2023/02/21 17:27:05;;;;;;;;;;;;;;;;;;10423381;28;19905;-80
2023/02/21 17:32:07;;;;;;;;;;;;;;;;;;10433828;28;19928;-83
2023/02/21 17:37:08;;;;;;;;;;;;;;;;;;10437874;28;19941;-84
2023/02/21 17:42:09;;;;;;;;;;;;;;;;;;10455256;28;19947;-83
2023/02/21 17:47:10;;;;;;;;;;;;;;;;;;10442945;28;20076;-84
2023/02/21 17:52:12;;;;;;;;;;;;;;;;;;10435892;28;19935;-84
2023/02/21 17:57:13;;;;;;;;;;;;;;;;;;10438522;28;19908;-85
2023/02/21 18:02:15;;;;;;;;;;;;;;;;;;10455564;28;19924;-84
2023/02/21 18:07:15;;;;;;;;;;;;;;;;;;10437535;28;19905;-84
2023/02/21 18:12:17;;;;;;;;;;;;;;;;;;10437705;28;19908;-85
2023/02/21 18:17:19;;;;;;;;;;;;;;;;;;10472641;22;19920;-84
2023/02/21 18:22:20;;;;;;;;;;;;;;;;;;10469072;28;19908;-84
2023/02/21 18:27:21;;;;;;;;;;;;;;;;;;10445674;28;19905;-84
2023/02/21 18:32:27;;;;;;;;;;;;;;;;;;10425129;28;19919;-84
2023/02/21 18:37:28;;;;;;;;;;;;;;;;;;10433546;28;19905;-84
2023/02/21 18:42:29;;;;;;;;;;;;;;;;;;10430567;28;19909;-83
2023/02/21 18:47:35;;;;;;;;;;;;;;;;;;10427421;28;19905;-85
2023/02/21 18:52:36;;;;;;;;;;;;;;;;;;10427625;28;19915;-84
2023/02/21 18:57:38;;;;;;;;;;;;;;;;;;10426596;28;19909;-84
2023/02/21 19:02:39;;;;;;;;;;;;;;;;;;10444753;28;20353;-85
2023/02/21 19:07:43;;;;;;;;;;;;;;;;;;10458342;28;19909;-84
2023/02/21 19:12:44;;;;;;;;;;;;;;;;;;10440380;28;19924;-84
2023/02/21 19:17:46;;;;;;;;;;;;;;;;;;10439526;28;19917;-85
2023/02/21 19:22:47;;;;;;;;;;;;;;;;;;10429973;28;20302;-84
2023/02/21 19:27:59;;;;;;;;;;;;;;;;;;10427544;28;19905;-83
2023/02/21 19:33:00;;;;;;;;;;;;;;;;;;10430369;28;19972;-84
2023/02/21 19:38:01;;;;;;;;;;;;;;;;;;10438362;28;20007;-83
2023/02/21 19:43:01;;;;;;;;;;;;;;;;;;10435651;28;20004;-83
2023/02/21 19:48:03;;;;;;;;;;;;;;;;;;10433931;28;19973;-83
2023/02/21 19:53:04;;;;;;;;;;;;;;;;;;10431898;28;19940;-84
2023/02/21 19:58:05;;;;;;;;;;;;;;;;;;10436693;28;19905;-83
2023/02/21 20:03:06;;;;;;;;;;;;;;;;;;10447384;28;19905;-84
2023/02/21 20:08:14;;;;;;;;;;;;;;;;;;10443742;28;19951;-86
2023/02/21 20:13:20;;;;;;;;;;;;;;;;;;10441766;28;19909;-85
2023/02/21 20:18:21;;;;;;;;;;;;;;;;;;10439398;28;20322;-85
